createdAt,value
2023-04-27T00:01:03.321Z,100435.16
2023-04-27T00:03:34.148Z,100441.20
2023-04-27T00:06:05.087Z,100441.17
2023-04-27T00:08:36.030Z,100437.46
2023-04-27T00:11:07.212Z,100442.64
2023-04-27T00:13:37.979Z,100440.98
2023-04-27T00:16:09.114Z,100442.45
2023-04-27T00:18:39.966Z,100441.92
2023-04-27T00:21:11.487Z,100438.80
2023-04-27T00:23:42.301Z,100440.98
2023-04-27T00:26:13.120Z,100442.42
2023-04-27T00:28:43.852Z,100443.61
2023-04-27T00:31:14.708Z,100445.09
2023-04-27T00:33:45.389Z,100447.58
2023-04-27T00:36:16.151Z,100451.86
2023-04-27T00:38:46.931Z,100451.55
2023-04-27T00:41:17.785Z,100450.83
2023-04-27T00:43:48.331Z,100452.15
2023-04-27T00:46:19.994Z,100453.89
2023-04-27T00:48:50.714Z,100458.02
2023-04-27T00:51:21.619Z,100459.75
2023-04-27T00:53:52.384Z,100462.92
2023-04-27T00:56:23.222Z,100462.77
2023-04-27T00:58:54.085Z,100464.39
2023-04-27T01:01:25.305Z,100460.92
2023-04-27T01:03:56.245Z,100461.52
2023-04-27T01:06:28.409Z,100460.34
2023-04-27T01:08:59.172Z,100462.36
2023-04-27T01:11:29.991Z,100467.16
2023-04-27T01:14:02.757Z,100469.83
2023-04-27T01:16:33.551Z,100468.73
2023-04-27T01:19:05.119Z,100477.27
2023-04-27T01:21:35.900Z,100485.13
2023-04-27T01:24:07.418Z,100488.46
2023-04-27T01:26:38.217Z,100486.52
2023-04-27T01:29:08.994Z,100490.53
2023-04-27T01:31:40.051Z,100492.28
2023-04-27T01:34:10.912Z,100496.06
2023-04-27T01:36:41.876Z,100497.45
2023-04-27T01:39:12.944Z,100498.10
2023-04-27T01:41:44.056Z,100499.70
2023-04-27T01:44:14.872Z,100493.23
2023-04-27T01:46:45.601Z,100494.08
2023-04-27T01:49:16.700Z,100496.39
2023-04-27T01:51:47.725Z,100498.21
2023-04-27T01:54:18.636Z,100494.42
2023-04-27T01:56:49.382Z,100498.03
2023-04-27T01:59:20.226Z,100494.73
2023-04-27T02:01:51.114Z,100497.65
2023-04-27T02:04:21.979Z,100496.43
2023-04-27T02:06:52.907Z,100497.01
2023-04-27T02:09:23.879Z,100501.44
2023-04-27T02:11:54.637Z,100503.50
2023-04-27T02:14:25.484Z,100501.46
2023-04-27T02:16:56.319Z,100508.73
2023-04-27T02:19:27.146Z,100511.16
2023-04-27T02:21:57.867Z,100513.20
2023-04-27T02:24:28.812Z,100515.06
2023-04-27T02:26:59.576Z,100519.02
2023-04-27T02:29:32.713Z,100523.94
2023-04-27T02:32:03.974Z,100525.36
2023-04-27T02:34:34.693Z,100527.84
2023-04-27T02:37:05.498Z,100527.34
2023-04-27T02:39:36.309Z,100527.88
2023-04-27T02:42:07.213Z,100526.95
2023-04-27T02:44:38.084Z,100529.42
2023-04-27T02:47:08.989Z,100527.95
2023-04-27T02:49:39.930Z,100532.23
2023-04-27T02:52:10.882Z,100537.27
2023-04-27T02:54:41.640Z,100542.17
2023-04-27T02:57:12.439Z,100543.02
2023-04-27T02:59:43.249Z,100549.42
2023-04-27T03:02:14.114Z,100559.98
2023-04-27T03:04:45.076Z,100564.79
2023-04-27T03:07:15.936Z,100568.03
2023-04-27T03:09:46.943Z,100573.85
2023-04-27T03:12:17.855Z,100580.30
2023-04-27T03:14:48.608Z,100582.16
2023-04-27T03:17:19.257Z,100583.23
2023-04-27T03:19:50.447Z,100583.08
2023-04-27T03:22:21.185Z,100582.63
2023-04-27T03:24:51.962Z,100586.91
2023-04-27T03:27:23.062Z,100586.06
2023-04-27T03:29:54.307Z,100589.98
2023-04-27T03:32:25.073Z,100594.22
2023-04-27T03:34:56.434Z,100597.73
2023-04-27T03:37:27.230Z,100597.58
2023-04-27T03:39:58.041Z,100600.11
2023-04-27T03:42:29.621Z,100608.31
2023-04-27T03:45:00.552Z,100610.14
2023-04-27T03:47:31.413Z,100612.95
2023-04-27T03:50:02.126Z,100613.77
2023-04-27T03:52:32.863Z,100618.88
2023-04-27T03:55:03.658Z,100621.25
2023-04-27T03:57:34.494Z,100619.98
2023-04-27T04:00:11.644Z,100625.69
2023-04-27T04:02:42.600Z,100632.51
2023-04-27T04:05:14.897Z,100626.60
2023-04-27T04:07:45.964Z,100638.05
2023-04-27T04:10:16.986Z,100642.56
2023-04-27T04:12:47.787Z,100642.74
2023-04-27T04:15:18.981Z,100647.59
2023-04-27T04:17:49.935Z,100648.76
2023-04-27T04:20:20.753Z,100651.80
2023-04-27T04:22:51.695Z,100652.91
2023-04-27T04:25:22.536Z,100654.09
2023-04-27T04:27:53.438Z,100654.70
2023-04-27T04:30:24.439Z,100658.21
2023-04-27T04:32:55.435Z,100661.77
2023-04-27T04:35:26.340Z,100663.79
2023-04-27T04:37:57.242Z,100662.89
2023-04-27T04:40:28.659Z,100663.64
2023-04-27T04:42:59.625Z,100668.86
2023-04-27T04:45:30.566Z,100673.29
2023-04-27T04:48:02.274Z,100669.59
2023-04-27T04:50:33.851Z,100668.64
2023-04-27T04:53:07.190Z,100675.88
2023-04-27T04:55:38.395Z,100675.12
2023-04-27T04:58:12.653Z,100677.20
2023-04-27T05:00:48.727Z,100678.22
2023-04-27T05:03:19.825Z,100683.87
2023-04-27T05:05:50.880Z,100682.23
2023-04-27T05:08:21.909Z,100681.59
2023-04-27T05:10:53.280Z,100681.27
2023-04-27T05:13:25.532Z,100683.98
2023-04-27T05:15:56.586Z,100686.80
2023-04-27T05:18:27.733Z,100690.88
2023-04-27T05:21:01.278Z,100694.41
2023-04-27T05:23:34.081Z,100697.66
2023-04-27T05:26:14.156Z,100696.98
2023-04-27T05:28:45.363Z,100698.16
2023-04-27T05:31:16.269Z,100699.23
2023-04-27T05:33:47.139Z,100701.35
2023-04-27T05:36:19.146Z,100701.25
2023-04-27T05:38:49.972Z,100699.09
2023-04-27T05:41:20.849Z,100700.19
2023-04-27T05:43:51.761Z,100702.80
2023-04-27T05:46:22.718Z,100706.69
2023-04-27T05:48:53.610Z,100702.38
2023-04-27T05:51:24.668Z,100707.35
2023-04-27T05:53:57.620Z,100707.96
2023-04-27T05:56:28.532Z,100708.80
2023-04-27T05:59:01.747Z,100709.24
2023-04-27T06:01:33.598Z,100711.54
2023-04-27T06:04:04.901Z,100710.91
2023-04-27T06:06:36.096Z,100709.40
2023-04-27T06:09:07.243Z,100709.86
2023-04-27T06:11:37.947Z,100706.66
2023-04-27T06:14:08.768Z,100707.60
2023-04-27T06:16:40.722Z,100712.48
2023-04-27T06:19:11.649Z,100712.48
2023-04-27T06:21:42.730Z,100711.68
2023-04-27T06:24:13.469Z,100711.02
2023-04-27T06:26:44.321Z,100710.43
2023-04-27T06:29:15.485Z,100708.09
2023-04-27T06:31:47.431Z,100707.91
2023-04-27T06:34:18.348Z,100707.97
2023-04-27T06:36:49.403Z,100704.84
2023-04-27T06:39:20.390Z,100709.14
2023-04-27T06:41:51.211Z,100708.91
2023-04-27T06:44:22.078Z,100708.20
2023-04-27T06:46:52.917Z,100707.77
2023-04-27T06:49:23.880Z,100706.80
2023-04-27T06:51:54.826Z,100705.56
2023-04-27T06:54:25.870Z,100706.09
2023-04-27T06:56:56.679Z,100711.48
2023-04-27T06:59:27.615Z,100712.23
2023-04-27T07:01:59.120Z,100710.94
2023-04-27T07:04:30.544Z,100707.82
2023-04-27T07:07:01.550Z,100708.27
2023-04-27T07:09:32.959Z,100713.02
2023-04-27T07:12:04.236Z,100719.42
2023-04-27T07:14:35.196Z,100716.86
2023-04-27T07:17:06.215Z,100717.27
2023-04-27T07:19:37.267Z,100715.12
2023-04-27T07:22:08.251Z,100714.91
2023-04-27T07:24:39.048Z,100716.04
2023-04-27T07:27:10.473Z,100719.63
2023-04-27T07:29:41.370Z,100718.56
2023-04-27T07:32:12.074Z,100720.37
2023-04-27T07:34:52.766Z,100718.41
2023-04-27T07:37:25.035Z,100719.57
2023-04-27T07:39:55.836Z,100719.46
2023-04-27T07:42:26.642Z,100725.79
2023-04-27T07:44:57.370Z,100723.85
2023-04-27T07:47:28.212Z,100723.66
2023-04-27T07:49:59.136Z,100724.46
2023-04-27T07:52:29.909Z,100728.72
2023-04-27T07:55:00.703Z,100735.07
2023-04-27T07:57:31.631Z,100732.02
2023-04-27T08:00:02.422Z,100731.58
2023-04-27T08:02:34.866Z,100733.08
2023-04-27T08:05:06.471Z,100732.87
2023-04-27T08:07:42.787Z,100734.98
2023-04-27T08:10:16.002Z,100742.67
2023-04-27T08:12:46.806Z,100738.05
2023-04-27T08:15:17.668Z,100738.80
2023-04-27T08:17:48.567Z,100735.60
2023-04-27T08:20:19.513Z,100737.48
2023-04-27T08:22:52.366Z,100734.52
2023-04-27T08:25:23.312Z,100730.51
2023-04-27T08:27:54.142Z,100738.48
2023-04-27T08:30:25.195Z,100735.41
2023-04-27T08:32:56.045Z,100737.38
2023-04-27T08:35:26.813Z,100735.25
2023-04-27T08:37:57.563Z,100733.11
2023-04-27T08:40:28.422Z,100733.23
2023-04-27T08:42:59.967Z,100735.65
2023-04-27T08:45:30.898Z,100734.12
2023-04-27T08:48:01.866Z,100736.02
2023-04-27T08:50:32.708Z,100734.53
2023-04-27T08:53:03.584Z,100732.19
2023-04-27T08:55:34.374Z,100730.20
2023-04-27T08:58:05.202Z,100730.35
2023-04-27T09:00:41.864Z,100725.15
2023-04-27T09:03:23.468Z,100724.64
2023-04-27T09:06:04.735Z,100721.27
2023-04-27T09:08:47.141Z,100723.60
2023-04-27T09:11:18.331Z,100720.71
2023-04-27T09:13:49.146Z,100720.14
2023-04-27T09:16:24.145Z,100717.98
2023-04-27T09:18:56.098Z,100719.20
2023-04-27T09:21:28.001Z,100714.13
2023-04-27T09:23:58.782Z,100721.65
2023-04-27T09:26:31.655Z,100720.14
2023-04-27T09:29:03.787Z,100718.06
2023-04-27T09:31:34.804Z,100720.63
2023-04-27T09:34:05.644Z,100715.86
2023-04-27T09:36:36.479Z,100711.56
2023-04-27T09:39:07.554Z,100714.98
2023-04-27T09:41:38.610Z,100708.77
2023-04-27T09:44:10.630Z,100704.92
2023-04-27T09:46:41.567Z,100695.60
2023-04-27T09:49:12.474Z,100690.06
2023-04-27T09:51:43.346Z,100681.27
2023-04-27T09:54:14.064Z,100688.20
2023-04-27T09:56:48.063Z,100686.11
2023-04-27T09:59:26.964Z,100676.73
2023-04-27T10:02:00.071Z,100681.33
2023-04-27T10:04:39.833Z,100676.10
2023-04-27T10:07:12.896Z,100664.36
2023-04-27T10:09:44.470Z,100662.55
2023-04-27T10:12:19.095Z,100656.45
2023-04-27T10:14:53.695Z,100652.66
2023-04-27T10:17:30.797Z,100651.45
2023-04-27T10:20:01.989Z,100652.25
2023-04-27T10:22:42.478Z,100658.66
2023-04-27T10:25:17.847Z,100655.75
2023-04-27T10:27:52.953Z,100657.63
2023-04-27T10:30:24.998Z,100649.86
2023-04-27T10:32:56.928Z,100647.95
2023-04-27T10:35:34.971Z,100654.38
2023-04-27T10:38:09.735Z,100650.54
2023-04-27T10:40:40.714Z,100652.39
2023-04-27T10:43:12.048Z,100658.24
2023-04-27T10:45:43.249Z,100648.33
2023-04-27T10:48:15.882Z,100649.60
2023-04-27T10:50:46.979Z,100651.07
2023-04-27T10:53:17.925Z,100641.36
2023-04-27T10:55:48.698Z,100641.38
2023-04-27T10:58:23.818Z,100642.31
2023-04-27T11:00:54.727Z,100642.76
2023-04-27T11:03:25.989Z,100648.88
2023-04-27T11:06:02.507Z,100641.09
2023-04-27T11:08:34.404Z,100648.48
2023-04-27T11:11:06.324Z,100637.77
2023-04-27T11:13:37.236Z,100641.44
2023-04-27T11:16:08.379Z,100632.27
2023-04-27T11:18:39.600Z,100636.71
2023-04-27T11:21:10.798Z,100634.02
2023-04-27T11:23:41.736Z,100633.85
2023-04-27T11:26:14.754Z,100635.16
2023-04-27T11:28:45.847Z,100631.27
2023-04-27T11:31:17.096Z,100630.16
2023-04-27T11:33:51.930Z,100632.88
2023-04-27T11:36:23.004Z,100636.58
2023-04-27T11:38:53.994Z,100632.89
2023-04-27T11:41:24.836Z,100637.25
2023-04-27T11:43:55.551Z,100636.20
2023-04-27T11:46:27.569Z,100631.00
2023-04-27T11:49:04.991Z,100633.75
2023-04-27T11:51:36.229Z,100629.50
2023-04-27T11:54:07.380Z,100633.65
2023-04-27T11:56:38.552Z,100637.50
2023-04-27T11:59:18.984Z,100631.64
2023-04-27T12:01:49.868Z,100629.61
2023-04-27T12:04:21.173Z,100631.23
2023-04-27T12:06:52.455Z,100629.80
2023-04-27T12:09:23.193Z,100629.80
2023-04-27T12:11:54.992Z,100627.95
2023-04-27T12:14:26.115Z,100624.48
2023-04-27T12:16:56.929Z,100626.48
2023-04-27T12:19:28.233Z,100618.95
2023-04-27T12:21:59.395Z,100625.74
2023-04-27T12:24:30.280Z,100628.91
2023-04-27T12:27:01.523Z,100620.16
2023-04-27T12:29:32.998Z,100616.80
2023-04-27T12:32:03.806Z,100614.68
2023-04-27T12:34:34.781Z,100616.61
2023-04-27T12:37:05.829Z,100611.73
2023-04-27T12:39:38.644Z,100612.77
2023-04-27T12:42:09.449Z,100613.63
2023-04-27T12:44:40.276Z,100614.08
2023-04-27T12:47:13.581Z,100611.45
2023-04-27T12:49:51.383Z,100616.40
2023-04-27T12:52:22.139Z,100617.66
2023-04-27T12:54:57.888Z,100611.90
2023-04-27T12:57:28.786Z,100614.80
2023-04-27T13:00:01.583Z,100615.06
2023-04-27T13:02:33.237Z,100609.98
2023-04-27T13:05:07.990Z,100614.99
2023-04-27T13:07:38.840Z,100615.84
2023-04-27T13:10:11.748Z,100620.00
2023-04-27T13:12:42.541Z,100626.48
2023-04-27T13:15:13.588Z,100622.05
2023-04-27T13:17:44.530Z,100624.17
2023-04-27T13:20:16.006Z,100621.59
2023-04-27T13:22:46.922Z,100624.35
2023-04-27T13:25:17.856Z,100625.26
2023-04-27T13:27:48.698Z,100620.05
2023-04-27T13:30:19.396Z,100620.00
2023-04-27T13:32:50.343Z,100618.19
2023-04-27T13:35:21.357Z,100614.77
2023-04-27T13:37:53.970Z,100614.12
2023-04-27T13:40:24.864Z,100612.98
2023-04-27T13:42:55.692Z,100614.28
2023-04-27T13:45:27.065Z,100618.64
2023-04-27T13:47:58.129Z,100618.08
2023-04-27T13:50:29.086Z,100619.66
2023-04-27T13:52:59.788Z,100624.38
2023-04-27T13:55:30.875Z,100626.42
2023-04-27T13:58:01.641Z,100623.27
2023-04-27T14:00:33.752Z,100620.91
2023-04-27T14:03:05.120Z,100631.23
2023-04-27T14:05:36.243Z,100631.00
2023-04-27T14:08:07.246Z,100635.70
2023-04-27T14:10:38.769Z,100645.55
2023-04-27T14:13:09.576Z,100654.09
2023-04-27T14:15:40.337Z,100655.06
2023-04-27T14:18:13.848Z,100657.48
2023-04-27T14:20:45.568Z,100656.05
2023-04-27T14:23:16.324Z,100650.82
2023-04-27T14:25:47.071Z,100653.05
2023-04-27T14:28:17.754Z,100647.13
2023-04-27T14:30:48.467Z,100643.15
2023-04-27T14:33:19.171Z,100641.89
2023-04-27T14:35:50.083Z,100640.72
2023-04-27T14:38:20.863Z,100643.89
2023-04-27T14:40:51.566Z,100645.73
2023-04-27T14:43:22.433Z,100648.74
2023-04-27T14:45:59.365Z,100646.30
2023-04-27T14:48:35.845Z,100641.25
2023-04-27T14:51:07.125Z,100644.29
2023-04-27T14:53:37.985Z,100645.40
2023-04-27T14:56:08.894Z,100646.00
2023-04-27T14:58:39.918Z,100646.40
2023-04-27T15:01:10.924Z,100642.86
2023-04-27T15:03:42.139Z,100638.65
2023-04-27T15:06:14.061Z,100637.15
2023-04-27T15:08:44.929Z,100640.02
2023-04-27T15:11:15.952Z,100637.67
2023-04-27T15:13:47.058Z,100634.22
2023-04-27T15:16:18.131Z,100634.58
2023-04-27T15:18:48.851Z,100641.26
2023-04-27T15:21:19.595Z,100642.33
2023-04-27T15:23:50.412Z,100642.89
2023-04-27T15:26:21.233Z,100641.69
2023-04-27T15:28:52.041Z,100644.09
2023-04-27T15:31:22.921Z,100647.95
2023-04-27T15:33:54.799Z,100651.64
2023-04-27T15:36:26.911Z,100657.17
2023-04-27T15:38:57.825Z,100659.03
2023-04-27T15:41:28.838Z,100659.66
2023-04-27T15:43:59.603Z,100670.52
2023-04-27T15:46:30.450Z,100672.05
2023-04-27T15:49:01.288Z,100670.91
2023-04-27T15:51:32.488Z,100676.06
2023-04-27T15:54:03.349Z,100678.98
2023-04-27T15:56:34.199Z,100680.85
2023-04-27T15:59:05.033Z,100680.48
2023-04-27T16:01:36.649Z,100683.27
2023-04-27T16:04:07.757Z,100684.44
2023-04-27T16:06:39.289Z,100687.16
2023-04-27T16:09:11.755Z,100690.54
2023-04-27T16:11:43.604Z,100692.95
2023-04-27T16:14:14.476Z,100699.20
2023-04-27T16:16:46.247Z,100705.35
2023-04-27T16:19:19.092Z,100707.80
2023-04-27T16:21:50.068Z,100708.73
2023-04-27T16:24:20.880Z,100714.27
2023-04-27T16:26:51.691Z,100717.67
2023-04-27T16:29:22.617Z,100721.98
2023-04-27T16:31:53.556Z,100729.17
2023-04-27T16:34:24.506Z,100731.91
2023-04-27T16:36:55.503Z,100734.94
2023-04-27T16:39:26.220Z,100736.17
2023-04-27T16:41:57.051Z,100740.48
2023-04-27T16:44:27.914Z,100744.37
2023-04-27T16:46:58.751Z,100749.75
2023-04-27T16:49:29.553Z,100749.38
2023-04-27T16:52:00.417Z,100750.25
2023-04-27T16:54:31.276Z,100751.55
2023-04-27T16:57:02.244Z,100750.20
2023-04-27T16:59:33.388Z,100752.84
2023-04-27T17:02:23.209Z,100757.36
2023-04-27T17:04:55.330Z,100759.36
2023-04-27T17:07:28.688Z,100761.67
2023-04-27T17:09:59.861Z,100761.97
2023-04-27T17:12:30.662Z,100759.77
2023-04-27T17:15:01.550Z,100762.41
2023-04-27T17:17:33.996Z,100762.52
2023-04-27T17:20:06.548Z,100762.44
2023-04-27T17:22:37.462Z,100768.39
2023-04-27T17:25:09.420Z,100772.13
2023-04-27T17:27:41.000Z,100774.45
2023-04-27T17:30:12.426Z,100776.01
2023-04-27T17:32:43.387Z,100780.01
2023-04-27T17:35:14.147Z,100787.45
2023-04-27T17:37:45.096Z,100791.86
2023-04-27T17:40:20.376Z,100798.95
2023-04-27T17:42:51.606Z,100804.46
2023-04-27T17:45:22.560Z,100808.64
2023-04-27T17:47:53.578Z,100813.41
2023-04-27T17:50:25.765Z,100817.83
2023-04-27T17:53:00.165Z,100821.14
2023-04-27T17:55:31.447Z,100824.75
2023-04-27T17:58:04.135Z,100825.08
2023-04-27T18:00:35.811Z,100831.27
2023-04-27T18:03:06.909Z,100828.84
2023-04-27T18:05:38.000Z,100832.48
2023-04-27T18:08:08.976Z,100832.93
2023-04-27T18:10:39.953Z,100835.75
2023-04-27T18:13:10.949Z,100835.70
2023-04-27T18:15:41.895Z,100842.46
2023-04-27T18:18:16.955Z,100844.06
2023-04-27T18:20:47.978Z,100847.13
2023-04-27T18:23:18.892Z,100847.67
2023-04-27T18:25:55.426Z,100852.02
2023-04-27T18:28:26.304Z,100854.70
2023-04-27T18:30:57.134Z,100859.64
2023-04-27T18:33:27.880Z,100863.06
2023-04-27T18:35:58.951Z,100863.73
2023-04-27T18:38:29.600Z,100867.86
2023-04-27T18:41:00.490Z,100869.58
2023-04-27T18:43:31.302Z,100871.73
2023-04-27T18:46:02.521Z,100878.80
2023-04-27T18:48:33.513Z,100875.90
2023-04-27T18:51:04.493Z,100877.92
2023-04-27T18:53:35.518Z,100876.88
2023-04-27T18:56:07.173Z,100881.92
2023-04-27T18:58:39.124Z,100884.79
2023-04-27T19:01:16.404Z,100888.52
2023-04-27T19:03:47.257Z,100893.32
2023-04-27T19:06:21.331Z,100901.40
2023-04-27T19:08:55.010Z,100907.61
2023-04-27T19:11:26.153Z,100918.71
2023-04-27T19:14:00.306Z,100928.44
2023-04-27T19:16:31.337Z,100930.66
2023-04-27T19:19:02.137Z,100938.14
2023-04-27T19:21:33.013Z,100947.95
2023-04-27T19:24:03.953Z,100948.54
2023-04-27T19:26:34.849Z,100955.15
2023-04-27T19:29:05.831Z,100962.05
2023-04-27T19:31:36.597Z,100969.05
2023-04-27T19:34:07.451Z,100973.06
2023-04-27T19:36:39.787Z,100974.63
2023-04-27T19:39:11.430Z,100984.48
2023-04-27T19:41:42.200Z,100993.14
2023-04-27T19:44:13.159Z,101001.09
2023-04-27T19:46:44.492Z,101002.55
2023-04-27T19:49:16.026Z,101001.67
2023-04-27T19:51:46.850Z,101007.77
2023-04-27T19:54:18.409Z,101013.64
2023-04-27T19:56:49.295Z,101016.04
2023-04-27T19:59:20.134Z,101020.86
2023-04-27T20:01:50.943Z,101019.52
2023-04-27T20:04:22.303Z,101027.70
2023-04-27T20:06:53.576Z,101028.20
2023-04-27T20:09:24.365Z,101027.45
2023-04-27T20:11:55.914Z,101027.09
2023-04-27T20:14:29.100Z,101025.80
2023-04-27T20:16:59.993Z,101026.64
2023-04-27T20:19:31.171Z,101022.42
2023-04-27T20:22:03.007Z,101021.05
2023-04-27T20:24:34.747Z,101017.11
2023-04-27T20:27:06.384Z,101012.06
2023-04-27T20:29:37.471Z,101015.25
2023-04-27T20:32:08.281Z,101018.71
2023-04-27T20:34:39.224Z,101019.54
2023-04-27T20:37:10.750Z,101017.57
2023-04-27T20:39:41.657Z,101014.35
2023-04-27T20:42:13.184Z,101008.00
2023-04-27T20:44:46.553Z,101011.42
2023-04-27T20:47:17.480Z,101013.64
2023-04-27T20:49:48.291Z,101014.91
2023-04-27T20:52:19.101Z,101016.42
2023-04-27T20:54:50.385Z,101018.33
2023-04-27T20:57:21.234Z,101020.55
2023-04-27T20:59:51.973Z,101021.23
2023-04-27T21:02:23.012Z,101021.70
2023-04-27T21:04:53.847Z,101027.69
2023-04-27T21:07:24.695Z,101031.44
2023-04-27T21:09:55.976Z,101033.05
2023-04-27T21:12:26.847Z,101034.95
2023-04-27T21:14:57.705Z,101035.85
2023-04-27T21:17:28.546Z,101036.53
2023-04-27T21:19:59.524Z,101036.19
2023-04-27T21:22:30.434Z,101039.75
2023-04-27T21:25:01.400Z,101043.95
2023-04-27T21:27:32.249Z,101046.92
2023-04-27T21:30:03.110Z,101048.52
2023-04-27T21:32:34.052Z,101047.17
2023-04-27T21:35:05.062Z,101043.10
2023-04-27T21:37:35.985Z,101048.82
2023-04-27T21:40:08.081Z,101049.38
2023-04-27T21:42:38.831Z,101054.11
2023-04-27T21:45:11.127Z,101056.44
2023-04-27T21:47:41.937Z,101057.85
2023-04-27T21:50:13.042Z,101056.84
2023-04-27T21:52:43.921Z,101063.21
2023-04-27T21:55:14.817Z,101059.45
2023-04-27T21:57:45.645Z,101061.68
2023-04-27T22:00:18.368Z,101061.73
2023-04-27T22:02:49.911Z,101065.67
2023-04-27T22:05:21.196Z,101068.70
2023-04-27T22:07:52.012Z,101071.59
2023-04-27T22:10:22.796Z,101072.17
2023-04-27T22:12:53.608Z,101077.70
2023-04-27T22:15:24.626Z,101078.84
2023-04-27T22:17:56.020Z,101077.89
2023-04-27T22:20:26.789Z,101078.41
2023-04-27T22:22:57.677Z,101081.45
2023-04-27T22:25:28.471Z,101084.21
2023-04-27T22:27:59.185Z,101085.27
2023-04-27T22:30:30.030Z,101085.31
2023-04-27T22:33:00.886Z,101084.27
2023-04-27T22:35:31.702Z,101089.70
2023-04-27T22:38:02.398Z,101090.18
2023-04-27T22:40:33.330Z,101088.23
2023-04-27T22:43:04.199Z,101086.83
2023-04-27T22:45:36.705Z,101088.37
2023-04-27T22:48:09.789Z,101092.46
2023-04-27T22:50:40.559Z,101096.40
2023-04-27T22:53:11.339Z,101097.20
2023-04-27T22:55:42.150Z,101094.83
2023-04-27T22:58:12.886Z,101097.45
2023-04-27T23:00:43.733Z,101099.48
2023-04-27T23:03:14.688Z,101095.32
2023-04-27T23:05:45.895Z,101097.78
2023-04-27T23:08:17.155Z,101093.46
2023-04-27T23:10:47.970Z,101095.89
2023-04-27T23:13:18.937Z,101099.41
2023-04-27T23:15:49.641Z,101099.88
2023-04-27T23:18:20.356Z,101094.28
2023-04-27T23:20:55.691Z,101094.77
2023-04-27T23:23:26.633Z,101095.36
2023-04-27T23:25:57.612Z,101090.35
2023-04-27T23:28:28.285Z,101093.13
2023-04-27T23:30:59.115Z,101093.50
2023-04-27T23:33:29.852Z,101093.70
2023-04-27T23:36:00.638Z,101093.52
2023-04-27T23:38:31.404Z,101096.29
2023-04-27T23:41:02.250Z,101089.54
2023-04-27T23:43:32.991Z,101092.54
2023-04-27T23:46:03.820Z,101094.73
2023-04-27T23:48:34.533Z,101095.60
2023-04-27T23:51:06.153Z,101092.02
2023-04-27T23:53:36.890Z,101096.15
2023-04-27T23:56:08.348Z,101095.56
2023-04-27T23:58:39.109Z,101093.10
